Time;durP1;ratioP1;P1;durP2;ratioP2;P2;SDS_P1;SDS_P2;PMS_P1;PMS_P2;Temp;Humidity;BMP_temperature;BMP_pressure;BME280_temperature;BME280_humidity;BME280_pressure;Samples;Min_cycle;Max_cycle;Signal;HPM_P1;HPM_P2
2023/10/02 00:02:08;;;;;;;0.10;0.10;;;;;;;13.74;100.00;99725.97;5113105;28;20190;-56
2023/10/02 00:04:55;;;;;;;0.10;0.10;;;;;;;13.75;100.00;99722.34;5111546;28;20267;-56
2023/10/02 00:07:45;;;;;;;0.10;0.10;;;;;;;13.71;100.00;99723.50;5112830;28;20265;-56
2023/10/02 00:10:31;;;;;;;0.10;0.10;;;;;;;13.77;100.00;99722.22;5112881;28;20202;-56
2023/10/02 00:13:18;;;;;;;0.20;0.20;;;;;;;13.90;100.00;99726.63;5112764;28;20342;-56
2023/10/02 00:16:08;;;;;;;0.10;0.10;;;;;;;14.01;100.00;99728.56;5113693;28;20198;-56
2023/10/02 00:19:18;;;;;;;0.20;0.20;;;;;;;14.05;100.00;99735.34;5115287;28;20206;-56
2023/10/02 00:22:05;;;;;;;0.20;0.20;;;;;;;14.09;100.00;99731.53;5116526;28;20194;-56
2023/10/02 00:24:54;;;;;;;0.20;0.20;;;;;;;13.92;100.00;99738.03;5116484;28;20190;-56
2023/10/02 00:27:40;;;;;;;0.20;0.20;;;;;;;13.78;100.00;99734.59;5116340;28;20228;-56
2023/10/02 00:30:35;;;;;;;0.10;0.10;;;;;;;13.71;100.00;99727.03;5129795;27;20186;-56
2023/10/02 00:33:27;;;;;;;0.10;0.10;;;;;;;13.76;100.00;99732.03;5114853;28;20219;-56
2023/10/02 00:36:14;;;;;;;0.10;0.10;;;;;;;13.83;100.00;99730.66;5116121;28;20244;-56
2023/10/02 00:39:25;;;;;;;0.10;0.10;;;;;;;13.93;100.00;99726.41;5116152;28;20206;-56
2023/10/02 00:42:16;;;;;;;0.10;0.10;;;;;;;14.11;100.00;99729.63;5116122;28;20755;-56
2023/10/02 00:45:03;;;;;;;0.10;0.10;;;;;;;14.03;100.00;99734.63;5116056;28;20252;-56
2023/10/02 00:47:52;;;;;;;0.10;0.10;;;;;;;14.09;100.00;99733.31;5113638;28;20201;-56
2023/10/02 00:50:49;;;;;;;0.10;0.10;;;;;;;13.91;100.00;99733.66;5115993;28;20214;-56
2023/10/02 00:53:45;;;;;;;0.20;0.20;;;;;;;14.20;100.00;99739.63;5114885;28;20696;-56
2023/10/02 00:56:31;;;;;;;0.10;0.10;;;;;;;14.20;100.00;99733.47;5114799;28;20197;-56
2023/10/02 00:59:23;;;;;;;0.20;0.20;;;;;;;13.96;100.00;99731.50;5114534;28;20260;-56
2023/10/02 01:02:11;;;;;;;0.10;0.10;;;;;;;13.59;100.00;99730.50;5115753;28;20194;-56
2023/10/02 01:04:58;;;;;;;0.10;0.10;;;;;;;13.55;100.00;99723.69;5115223;28;20186;-56
2023/10/02 01:07:46;;;;;;;0.20;0.20;;;;;;;13.50;100.00;99728.44;5114291;28;20191;-56
2023/10/02 01:10:35;;;;;;;0.20;0.20;;;;;;;13.74;100.00;99742.78;5115579;28;20260;-56
2023/10/02 01:13:24;;;;;;;0.10;0.10;;;;;;;13.46;100.00;99732.28;5115541;28;20194;-56
2023/10/02 01:16:13;;;;;;;0.10;0.10;;;;;;;13.37;100.00;99730.22;5115005;28;20214;-56
2023/10/02 01:19:01;;;;;;;0.20;0.20;;;;;;;13.06;100.00;99728.72;5114048;28;20191;-56
2023/10/02 01:21:48;;;;;;;0.10;0.10;;;;;;;13.32;100.00;99737.69;5115370;28;20193;-56
2023/10/02 01:24:36;;;;;;;0.10;0.10;;;;;;;13.05;100.00;99737.66;5115201;28;20186;-56
2023/10/02 01:27:40;;;;;;;0.10;0.10;;;;;;;13.08;100.00;99732.13;5115346;28;20257;-56
2023/10/02 01:30:27;;;;;;;0.20;0.20;;;;;;;13.10;100.00;99725.72;5115153;28;20271;-56
2023/10/02 01:33:17;;;;;;;0.20;0.20;;;;;;;13.18;100.00;99726.09;5113839;28;20198;-56
2023/10/02 01:36:05;;;;;;;0.20;0.20;;;;;;;13.25;100.00;99723.91;5114755;28;20704;-56
2023/10/02 01:38:55;;;;;;;0.10;0.10;;;;;;;13.28;100.00;99717.53;5114728;28;20213;-56
2023/10/02 01:41:48;;;;;;;0.20;0.20;;;;;;;13.13;100.00;99714.91;5114916;28;20190;-56
2023/10/02 01:44:54;;;;;;;0.20;0.20;;;;;;;13.03;100.00;99712.97;5114871;28;20194;-56
2023/10/02 01:47:42;;;;;;;0.10;0.10;;;;;;;13.04;100.00;99712.00;5112493;28;20193;-56
2023/10/02 01:50:29;;;;;;;0.10;0.10;;;;;;;13.29;100.00;99719.25;5114771;28;20193;-56
2023/10/02 01:53:30;;;;;;;0.10;0.10;;;;;;;13.41;100.00;99711.31;5114719;28;20245;-56
2023/10/02 01:56:18;;;;;;;0.20;0.20;;;;;;;13.16;100.00;99712.03;5113386;28;20276;-56
2023/10/02 01:59:09;;;;;;;0.20;0.20;;;;;;;13.29;100.00;99709.44;5114609;28;20201;-56
2023/10/02 02:01:58;;;;;;;0.10;0.10;;;;;;;13.12;100.00;99707.91;5113346;28;20197;-56
2023/10/02 02:04:46;;;;;;;0.20;0.20;;;;;;;13.10;100.00;99712.44;5111972;28;20189;-56
2023/10/02 02:07:35;;;;;;;0.20;0.20;;;;;;;13.08;100.00;99706.38;5113963;28;20198;-55
2023/10/02 02:10:22;;;;;;;0.20;0.20;;;;;;;13.10;100.00;99704.47;5113151;28;20213;-56
2023/10/02 02:13:09;;;;;;;0.13;0.13;;;;;;;13.10;100.00;99704.47;5114391;28;20201;-56
2023/10/02 02:16:07;;;;;;;0.20;0.20;;;;;;;13.25;100.00;99699.97;5127562;27;20252;-56
2023/10/02 02:18:54;;;;;;;0.13;0.13;;;;;;;13.31;100.00;99701.38;5112824;28;20320;-56
2023/10/02 02:21:41;;;;;;;0.20;0.20;;;;;;;13.20;100.00;99703.88;5114188;28;20198;-56
2023/10/02 02:24:34;;;;;;;0.20;0.20;;;;;;;13.14;100.00;99703.31;5127630;27;20190;-56
2023/10/02 02:27:21;;;;;;;0.20;0.20;;;;;;;13.03;100.00;99702.31;5113912;28;20190;-56
2023/10/02 02:30:10;;;;;;;0.10;0.10;;;;;;;12.82;100.00;99699.22;5114016;28;20243;-56
2023/10/02 02:33:00;;;;;;;0.10;0.10;;;;;;;13.03;100.00;99700.50;5112646;28;20282;-56
2023/10/02 02:35:48;;;;;;;0.20;0.20;;;;;;;12.83;100.00;99690.28;5113764;28;20222;-56
2023/10/02 02:38:35;;;;;;;0.20;0.20;;;;;;;12.64;100.00;99701.25;5113525;28;20232;-55
2023/10/02 02:41:23;;;;;;;0.10;0.10;;;;;;;12.77;100.00;99707.50;5113845;28;20268;-56
2023/10/02 02:44:29;;;;;;;0.20;0.20;;;;;;;12.89;100.00;99712.03;5113837;28;20676;-56
2023/10/02 02:47:17;;;;;;;0.17;0.17;;;;;;;13.07;100.00;99710.00;5113726;28;20198;-56
2023/10/02 02:50:07;;;;;;;0.10;0.10;;;;;;;12.93;100.00;99711.81;5113783;28;20186;-56
2023/10/02 02:53:16;;;;;;;0.10;0.10;;;;;;;12.70;100.00;99719.47;5113736;28;20193;-55
2023/10/02 02:56:18;;;;;;;0.10;0.10;;;;;;;12.59;100.00;99721.97;5113237;28;20213;-56
2023/10/02 02:59:07;;;;;;;0.10;0.10;;;;;;;12.80;100.00;99712.63;5113566;28;20190;-55
2023/10/02 03:02:08;;;;;;;0.10;0.10;;;;;;;12.64;100.00;99711.03;5113569;28;20264;-56
2023/10/02 03:04:56;;;;;;;0.10;0.10;;;;;;;12.71;100.00;99717.69;5113193;28;20186;-56
2023/10/02 03:07:45;;;;;;;0.10;0.10;;;;;;;12.66;100.00;99720.63;5113168;28;20186;-56
2023/10/02 03:10:36;;;;;;;0.10;0.10;;;;;;;12.77;100.00;99710.16;5113360;28;20193;-56
2023/10/02 03:13:27;;;;;;;0.17;0.17;;;;;;;12.71;100.00;99717.69;5113381;28;20194;-56
2023/10/02 03:16:17;;;;;;;0.10;0.10;;;;;;;12.73;100.00;99711.31;5113291;28;20750;-55
2023/10/02 03:19:05;;;;;;;0.10;0.10;;;;;;;12.64;100.00;99709.22;5111932;28;20259;-56
2023/10/02 03:22:01;;;;;;;0.10;0.10;;;;;;;12.42;100.00;99706.22;5113368;28;20194;-56
2023/10/02 03:24:51;;;;;;;0.10;0.10;;;;;;;12.30;100.00;99710.50;5113294;28;20210;-55
2023/10/02 03:27:40;;;;;;;0.20;0.20;;;;;;;12.38;100.00;99710.03;5113118;28;20756;-56
2023/10/02 03:30:38;;;;;;;0.20;0.20;;;;;;;12.36;100.00;99709.28;5113163;28;20198;-56
2023/10/02 03:33:31;;;;;;;0.10;0.10;;;;;;;12.53;100.00;99725.84;5110622;28;20275;-56
2023/10/02 03:36:20;;;;;;;0.10;0.10;;;;;;;12.71;100.00;99715.88;5113001;28;20210;-56
2023/10/02 03:39:23;;;;;;;0.10;0.10;;;;;;;12.67;100.00;99721.50;5113148;28;20198;-56
2023/10/02 03:42:13;;;;;;;0.10;0.10;;;;;;;12.77;100.00;99707.50;5113003;28;20193;-56
2023/10/02 03:45:03;;;;;;;0.10;0.10;;;;;;;12.68;100.00;99702.78;5113331;28;20190;-56
2023/10/02 03:48:01;;;;;;;0.10;0.10;;;;;;;12.48;100.00;99701.38;5111704;28;20190;-56
2023/10/02 03:50:48;;;;;;;0.10;0.10;;;;;;;12.26;100.00;99693.06;5113682;28;20194;-56
2023/10/02 03:53:35;;;;;;;0.10;0.10;;;;;;;12.19;100.00;99705.88;5117025;28;20194;-56
2023/10/02 03:56:39;;;;;;;0.10;0.10;;;;;;;12.49;100.00;99703.09;5116746;28;20217;-56
2023/10/02 03:59:31;;;;;;;0.10;0.10;;;;;;;12.46;100.00;99708.63;5116940;28;20365;-56
2023/10/02 04:02:30;;;;;;;0.10;0.10;;;;;;;12.29;100.00;99703.50;5117095;28;20194;-56
2023/10/02 04:05:30;;;;;;;0.10;0.10;;;;;;;12.33;100.00;99705.00;5116883;28;20222;-56
2023/10/02 04:08:24;;;;;;;0.10;0.10;;;;;;;12.20;100.00;99706.72;5116706;28;20279;-56
2023/10/02 04:11:12;;;;;;;0.10;0.10;;;;;;;12.43;100.00;99705.28;5116615;28;20214;-56
2023/10/02 04:14:01;;;;;;;0.10;0.10;;;;;;;12.30;100.00;99698.09;5116893;28;20266;-56
2023/10/02 04:16:51;;;;;;;0.10;0.10;;;;;;;12.25;100.00;99700.16;5116483;28;20213;-56
2023/10/02 04:19:40;;;;;;;0.10;0.10;;;;;;;12.05;100.00;99697.88;5115181;28;20256;-56
2023/10/02 04:22:30;;;;;;;0.10;0.10;;;;;;;12.26;100.00;99707.19;5116593;28;20190;-56
2023/10/02 04:25:17;;;;;;;0.10;0.10;;;;;;;12.07;100.00;99703.97;5116443;28;20194;-56
2023/10/02 04:28:08;;;;;;;0.10;0.10;;;;;;;12.12;100.00;99701.03;5116263;28;20206;-56
2023/10/02 04:31:05;;;;;;;0.10;0.10;;;;;;;12.13;100.00;99700.94;5116289;28;20190;-56
2023/10/02 04:34:15;;;;;;;0.10;0.10;;;;;;;12.36;100.00;99701.31;5115018;28;20271;-56
2023/10/02 04:37:19;;;;;;;0.10;0.10;;;;;;;12.22;100.00;99694.19;5116016;28;20210;-56
2023/10/02 04:40:22;;;;;;;0.20;0.20;;;;;;;12.18;100.00;99695.34;5116264;28;20275;-56
2023/10/02 04:43:23;;;;;;;0.10;0.10;;;;;;;12.25;100.00;99709.94;5116131;28;20194;-56
2023/10/02 04:46:14;;;;;;;0.10;0.10;;;;;;;12.36;100.00;99710.16;5116126;28;20247;-56
2023/10/02 04:49:04;;;;;;;0.20;0.20;;;;;;;12.33;100.00;99711.16;5114606;28;20684;-56
2023/10/02 04:51:53;;;;;;;0.10;0.10;;;;;;;12.21;100.00;99709.28;5115949;28;20209;-56
2023/10/02 04:54:40;;;;;;;0.10;0.10;;;;;;;12.16;100.00;99702.53;5115985;28;20186;-56
2023/10/02 04:57:27;;;;;;;0.10;0.10;;;;;;;12.16;100.00;99700.75;5115812;28;20282;-56
2023/10/02 05:00:26;;;;;;;0.20;0.20;;;;;;;12.15;100.00;99703.47;5115678;28;20248;-56
2023/10/02 05:03:24;;;;;;;0.10;0.10;;;;;;;12.19;100.00;99697.91;5113926;28;20315;-56
2023/10/02 05:06:16;;;;;;;0.10;0.10;;;;;;;12.16;100.00;99698.09;5115570;28;20214;-56
2023/10/02 05:09:19;;;;;;;0.10;0.10;;;;;;;12.25;100.00;99700.16;5115282;28;20230;-56
2023/10/02 05:12:06;;;;;;;0.10;0.10;;;;;;;12.26;100.00;99695.72;5115618;28;20271;-56
2023/10/02 05:14:53;;;;;;;0.10;0.10;;;;;;;12.44;100.00;99696.34;5115449;28;20209;-56
2023/10/02 05:17:46;;;;;;;0.10;0.10;;;;;;;12.54;100.00;99698.31;5114027;28;20182;-56
2023/10/02 05:20:38;;;;;;;0.17;0.17;;;;;;;12.42;100.00;99695.59;5115461;28;20187;-56
2023/10/02 05:23:25;;;;;;;0.20;0.20;;;;;;;12.28;100.00;99697.34;5115334;28;20316;-56
2023/10/02 05:26:29;;;;;;;0.10;0.10;;;;;;;12.24;100.00;99694.94;5115105;28;20198;-56
2023/10/02 05:29:35;;;;;;;0.10;0.10;;;;;;;12.13;100.00;99698.25;5115135;28;20287;-56
2023/10/02 05:32:24;;;;;;;0.10;0.10;;;;;;;12.08;100.00;99694.22;5113857;28;20198;-56
2023/10/02 05:35:18;;;;;;;0.10;0.10;;;;;;;12.13;100.00;99710.69;5115152;28;20194;-56
2023/10/02 05:38:08;;;;;;;0.10;0.10;;;;;;;12.04;100.00;99709.44;5115080;28;20691;-56
2023/10/02 05:40:58;;;;;;;0.10;0.10;;;;;;;12.21;100.00;99698.66;5114849;28;20244;-56
2023/10/02 05:43:56;;;;;;;0.10;0.10;;;;;;;12.13;100.00;99713.34;5114971;28;20197;-56
2023/10/02 05:46:56;;;;;;;0.10;0.10;;;;;;;12.19;100.00;99708.53;5114734;28;20328;-56
2023/10/02 05:49:47;;;;;;;0.10;0.10;;;;;;;12.01;100.00;99713.16;5114073;28;20198;-56
2023/10/02 05:52:35;;;;;;;0.10;0.10;;;;;;;12.14;100.00;99699.97;5114780;28;20285;-56
2023/10/02 05:55:22;;;;;;;0.10;0.10;;;;;;;12.20;100.00;99706.72;5114723;28;20190;-55
2023/10/02 05:58:20;;;;;;;0.10;0.10;;;;;;;12.22;100.00;99705.66;5114633;28;20190;-56
2023/10/02 06:01:18;;;;;;;0.10;0.10;;;;;;;12.46;100.00;99702.44;5114561;28;20213;-56
2023/10/02 06:04:06;;;;;;;0.10;0.10;;;;;;;12.26;100.00;99701.88;5113265;28;20194;-56
2023/10/02 06:07:01;;;;;;;0.10;0.10;;;;;;;12.42;100.00;99698.25;5114252;28;20243;-56
2023/10/02 06:09:48;;;;;;;0.10;0.10;;;;;;;12.51;100.00;99703.00;5113700;28;20218;-56
2023/10/02 06:12:35;;;;;;;0.10;0.10;;;;;;;12.74;100.00;99705.06;5113848;28;20244;-56
2023/10/02 06:18:27;;;;;;;0.10;0.10;;;;;;;12.96;100.00;99723.13;5112777;28;20213;-56
2023/10/02 06:21:14;;;;;;;0.10;0.10;;;;;;;13.06;100.00;99721.59;5114138;28;20557;-56
2023/10/02 06:24:01;;;;;;;0.10;0.10;;;;;;;13.23;100.00;99728.50;5114218;28;20292;-56
2023/10/02 06:26:55;;;;;;;0.13;0.13;;;;;;;13.17;100.00;99736.84;5113827;28;20206;-56
2023/10/02 06:29:47;;;;;;;0.10;0.10;;;;;;;13.13;100.00;99724.72;5113966;28;20672;-56
2023/10/02 06:32:52;;;;;;;0.10;0.10;;;;;;;13.13;100.00;99735.34;5112535;28;20228;-56
2023/10/02 06:35:45;;;;;;;0.10;0.10;;;;;;;13.18;100.00;99736.72;5113993;28;20190;-56
2023/10/02 06:38:31;;;;;;;0.10;0.10;;;;;;;13.42;100.00;99736.97;5113885;28;20198;-56
2023/10/02 06:41:19;;;;;;;0.10;0.10;;;;;;;13.73;100.00;99734.91;5113708;28;20264;-56
2023/10/02 06:44:14;;;;;;;0.10;0.10;;;;;;;13.86;100.00;99738.44;5113758;28;20272;-56
2023/10/02 06:47:04;;;;;;;0.20;0.20;;;;;;;13.86;100.00;99735.78;5113649;28;20272;-56
2023/10/02 06:49:53;;;;;;;0.10;0.10;;;;;;;14.02;100.00;99738.25;5113531;28;20194;-56
2023/10/02 06:52:41;;;;;;;0.10;0.10;;;;;;;14.11;100.00;99726.97;5113813;28;20194;-56
2023/10/02 06:55:29;;;;;;;0.10;0.10;;;;;;;14.29;100.00;99732.81;5113648;28;20264;-56
2023/10/02 06:58:16;;;;;;;0.17;0.17;;;;;;;14.17;100.00;99726.50;5113416;28;20186;-56
2023/10/02 07:01:03;;;;;;;0.10;0.10;;;;;;;14.40;100.00;99719.59;5113723;28;20194;-56
2023/10/02 07:03:52;;;;;;;0.10;0.10;;;;;;;14.56;100.00;99730.03;5112274;28;20687;-56
2023/10/02 07:06:40;;;;;;;0.10;0.10;;;;;;;14.85;100.00;99717.25;5113337;28;20264;-56
2023/10/02 07:09:27;;;;;;;0.10;0.10;;;;;;;14.83;100.00;99721.88;5113107;28;20230;-56
2023/10/02 07:12:14;;;;;;;0.10;0.10;;;;;;;15.08;100.00;99720.94;5113388;28;20210;-56
2023/10/02 07:15:12;;;;;;;0.10;0.10;;;;;;;15.17;100.00;99731.78;5113283;28;20194;-56
2023/10/02 07:18:04;;;;;;;0.10;0.10;;;;;;;15.30;100.00;99729.03;5112055;28;20189;-56
2023/10/02 07:20:53;;;;;;;0.10;0.10;;;;;;;15.38;100.00;99724.00;5113470;28;20552;-56
2023/10/02 07:23:43;;;;;;;0.10;0.10;;;;;;;15.59;100.00;99726.00;5113431;28;20214;-56
2023/10/02 07:29:38;;;;;;;0.10;0.10;;;;;;;15.43;100.00;99723.63;5117443;28;20193;-56
2023/10/02 07:32:27;;;;;;;0.10;0.10;;;;;;;15.46;100.00;99723.44;5116219;28;20260;-56
2023/10/02 07:35:21;;;;;;;0.10;0.10;;;;;;;15.59;100.00;99726.88;5117570;28;20730;-56
2023/10/02 07:38:09;;;;;;;0.20;0.20;;;;;;;15.75;100.00;99726.59;5117429;28;20201;-55
2023/10/02 07:41:06;;;;;;;0.10;0.10;;;;;;;16.01;100.00;99724.56;5117329;28;20675;-56
2023/10/02 07:43:55;;;;;;;0.10;0.10;;;;;;;15.95;100.00;99717.91;5117204;28;20425;-56
2023/10/02 07:46:42;;;;;;;0.10;0.10;;;;;;;16.06;100.00;99716.22;5117153;28;20210;-56
2023/10/02 07:49:32;;;;;;;0.10;0.10;;;;;;;16.47;100.00;99708.44;5115521;28;20209;-56
2023/10/02 07:52:30;;;;;;;0.10;0.10;;;;;;;16.28;100.00;99706.38;5117022;28;20190;-56
2023/10/02 07:55:23;;;;;;;0.10;0.10;;;;;;;16.30;100.00;99708.94;5117098;28;20720;-56
2023/10/02 07:58:13;;;;;;;0.10;0.10;;;;;;;16.15;100.00;99711.00;5116948;28;20195;-56
2023/10/02 08:01:06;;;;;;;0.10;0.10;;;;;;;16.47;100.00;99711.13;5116973;28;20195;-56
2023/10/02 08:03:54;;;;;;;0.10;0.10;;;;;;;16.52;100.00;99698.25;5115557;28;20244;-56
2023/10/02 08:06:44;;;;;;;0.10;0.10;;;;;;;16.65;100.00;99711.50;5116759;28;20209;-56
2023/10/02 08:09:47;;;;;;;0.10;0.10;;;;;;;16.69;100.00;99701.41;5116342;28;20221;-56
2023/10/02 08:12:36;;;;;;;0.10;0.10;;;;;;;16.40;100.00;99712.56;5116811;28;20198;-55
2023/10/02 08:15:27;;;;;;;0.10;0.10;;;;;;;16.79;100.00;99703.25;5116375;28;20198;-56
2023/10/02 08:18:18;;;;;;;0.10;0.10;;;;;;;17.15;100.00;99707.41;5115191;28;20190;-56
2023/10/02 08:21:05;;;;;;;0.10;0.10;;;;;;;17.50;100.00;99708.13;5116521;28;20187;-56
2023/10/02 08:23:54;;;;;;;0.20;0.20;;;;;;;17.81;100.00;99706.41;5116230;28;20257;-56
2023/10/02 08:26:44;;;;;;;0.10;0.10;;;;;;;17.86;100.00;99704.22;5116416;28;20264;-56
2023/10/02 08:29:32;;;;;;;0.10;0.10;;;;;;;17.94;100.00;99702.53;5116040;28;20249;-56
2023/10/02 08:32:28;;;;;;;0.10;0.10;;;;;;;18.10;100.00;99703.91;5115915;28;20198;-56
2023/10/02 08:35:16;;;;;;;0.10;0.10;;;;;;;18.17;100.00;99697.91;5116298;28;20206;-56
2023/10/02 08:38:07;;;;;;;0.10;0.10;;;;;;;18.29;100.00;99691.47;5115449;28;20664;-56
2023/10/02 08:40:58;;;;;;;0.10;0.10;;;;;;;18.80;100.00;99703.97;5112799;28;20194;-57
2023/10/02 08:43:45;;;;;;;0.10;0.10;;;;;;;19.07;100.00;99703.31;5114899;28;20391;-56
2023/10/02 08:46:32;;;;;;;0.10;0.10;;;;;;;18.95;100.00;99704.44;5114871;28;20308;-56
2023/10/02 08:49:25;;;;;;;0.10;0.10;;;;;;;19.06;100.00;99704.31;5113392;28;20542;-56
2023/10/02 08:52:13;;;;;;;0.10;0.10;;;;;;;19.12;100.00;99701.06;5114719;28;20194;-57
2023/10/02 08:55:33;;;;;;;0.10;0.10;;;;;;;19.35;100.00;99698.97;5114421;28;20276;-56
2023/10/02 08:58:22;;;;;;;0.10;0.10;;;;;;;19.66;100.00;99694.31;5114960;28;20190;-57
2023/10/02 09:04:28;;;;;;;0.10;0.10;;;;;;;19.78;100.00;99695.00;5113302;28;20202;-56
2023/10/02 09:07:24;;;;;;;0.10;0.10;;;;;;;19.98;100.00;99691.31;5114585;28;20201;-56
2023/10/02 09:10:18;;;;;;;0.10;0.10;;;;;;;20.46;100.00;99693.03;5113107;28;20206;-56
2023/10/02 09:13:13;;;;;;;0.10;0.10;;;;;;;20.81;100.00;99686.88;5114014;28;20255;-56
2023/10/02 09:16:14;;;;;;;0.07;0.07;;;;;;;20.52;100.00;99688.88;5114574;28;20220;-56
2023/10/02 09:19:12;;;;;;;0.10;0.10;;;;;;;20.71;100.00;99682.56;5112972;28;20214;-56
2023/10/02 09:22:16;;;;;;;0.10;0.10;;;;;;;20.84;100.00;99681.22;5114309;28;20194;-56
2023/10/02 09:25:13;;;;;;;0.10;0.10;;;;;;;21.19;100.00;99676.84;5114228;28;20193;-57
2023/10/02 09:28:04;;;;;;;0.10;0.10;;;;;;;21.85;100.00;99675.59;5114137;28;20203;-56
2023/10/02 09:31:14;;;;;;;0.10;0.10;;;;;;;21.88;100.00;99669.88;5114382;28;20324;-57
2023/10/02 09:34:10;;;;;;;0.10;0.10;;;;;;;21.96;100.00;99678.88;5112657;28;20202;-56
2023/10/02 09:37:11;;;;;;;0.15;0.15;;;;;;;22.51;100.00;99672.31;5114210;28;20198;-57
2023/10/02 09:40:20;;;;;;;0.10;0.10;;;;;;;22.56;100.00;99670.81;5113593;28;20312;-57
2023/10/02 09:43:14;;;;;;;0.10;0.10;;;;;;;22.90;100.00;99664.56;5114031;28;20251;-56
2023/10/02 09:46:06;;;;;;;0.10;0.10;;;;;;;23.58;100.00;99655.34;5113285;28;20190;-56
2023/10/02 09:49:03;;;;;;;0.10;0.10;;;;;;;24.93;89.90;99649.94;5111171;28;20730;-56
2023/10/02 09:52:10;;;;;;;0.10;0.10;;;;;;;26.64;76.97;99636.72;5113908;28;20198;-56
2023/10/02 09:55:04;;;;;;;0.00;0.00;;;;;;;27.76;65.52;99637.06;5113451;28;20677;-56
2023/10/02 09:57:57;;;;;;;0.10;0.10;;;;;;;28.38;61.26;99634.38;5113827;28;20312;-56
2023/10/02 10:07:37;;;;;;;0.00;0.00;;;;;;;30.83;51.57;99641.94;5113628;28;20201;-57
2023/10/02 10:10:27;;;;;;;0.00;0.00;;;;;;;29.71;52.13;99634.75;5112827;28;20225;-57
2023/10/02 10:13:34;;;;;;;0.10;0.10;;;;;;;31.92;46.68;99629.84;5113385;28;20185;-57
2023/10/02 10:16:38;;;;;;;0.00;0.00;;;;;;;31.49;47.98;99634.19;5112994;28;20190;-57
2023/10/02 10:19:27;;;;;;;0.00;0.00;;;;;;;31.25;47.17;99624.03;5112028;28;20190;-57
2023/10/02 10:22:36;;;;;;;0.00;0.00;;;;;;;32.40;45.67;99632.72;5114185;28;20206;-57
2023/10/02 10:25:42;;;;;;;0.00;0.00;;;;;;;31.99;46.30;99622.41;5114206;28;20319;-57
2023/10/02 10:28:30;;;;;;;0.00;0.00;;;;;;;33.07;44.36;99619.88;5113945;28;20189;-57
2023/10/02 10:31:27;;;;;;;0.00;0.00;;;;;;;33.70;42.61;99621.25;5113936;28;20194;-57
2023/10/02 10:35:11;;;;;;;0.00;0.00;;;;;;;33.88;41.29;99629.41;5112505;28;20290;-58
2023/10/02 10:37:58;;;;;;;0.00;0.00;;;;;;;33.08;42.46;99621.53;5113902;28;20236;-57
2023/10/02 10:40:50;;;;;;;0.00;0.00;;;;;;;33.73;42.02;99618.00;5113798;28;20198;-57
2023/10/02 10:43:57;;;;;;;0.00;0.00;;;;;;;33.42;42.68;99625.50;5113920;28;20213;-57
2023/10/02 10:46:50;;;;;;;0.00;0.00;;;;;;;33.57;42.27;99614.03;5113958;28;20201;-57
2023/10/02 10:49:53;;;;;;;0.00;0.00;;;;;;;33.09;43.26;99609.47;5112108;28;20291;-57
2023/10/02 10:52:44;;;;;;;0.00;0.00;;;;;;;34.39;40.40;99616.84;5110973;28;20210;-57
2023/10/02 10:55:34;;;;;;;0.00;0.00;;;;;;;34.11;40.26;99612.06;5113047;28;20309;-57
2023/10/02 10:58:34;;;;;;;0.00;0.00;;;;;;;33.20;42.92;99613.31;5112585;28;20294;-57
2023/10/02 11:01:23;;;;;;;0.00;0.00;;;;;;;34.34;40.67;99617.53;5111958;28;20198;-57
2023/10/02 11:04:13;;;;;;;0.00;0.00;;;;;;;32.91;42.71;99615.88;5110469;28;20311;-57
2023/10/02 11:07:00;;;;;;;0.00;0.00;;;;;;;33.22;41.90;99606.56;5111944;28;20198;-57
2023/10/02 11:10:14;;;;;;;0.00;0.00;;;;;;;34.46;41.03;99614.81;5111134;28;20253;-57
2023/10/02 11:13:06;;;;;;;0.00;0.00;;;;;;;36.01;38.07;99604.44;5111675;28;20239;-57
2023/10/02 11:16:07;;;;;;;0.00;0.00;;;;;;;35.84;37.36;99607.19;5112066;28;20639;-57
2023/10/02 11:19:23;;;;;;;0.00;0.00;;;;;;;36.27;37.43;99591.81;5111128;28;20221;-57
2023/10/02 11:22:18;;;;;;;0.00;0.00;;;;;;;36.06;36.58;99587.94;5111807;28;20202;-58
2023/10/02 11:25:20;;;;;;;0.00;0.00;;;;;;;34.93;38.54;99592.63;5112326;28;20193;-58
2023/10/02 11:28:08;;;;;;;0.00;0.00;;;;;;;34.68;38.98;99599.28;5112444;28;20328;-57
2023/10/02 11:31:30;;;;;;;0.00;0.00;;;;;;;33.58;40.08;99590.97;5111297;28;20230;-57
2023/10/02 11:34:20;;;;;;;0.00;0.00;;;;;;;32.88;41.54;99571.56;5110751;28;20309;-57
2023/10/02 11:37:23;;;;;;;0.00;0.00;;;;;;;34.03;40.34;99582.19;5111752;28;20312;-57
2023/10/02 11:40:10;;;;;;;0.00;0.00;;;;;;;33.62;39.35;99569.38;5112275;28;20272;-57
2023/10/02 11:42:59;;;;;;;0.00;0.00;;;;;;;34.48;40.32;99579.63;5111108;28;20189;-57
2023/10/02 11:45:47;;;;;;;0.00;0.00;;;;;;;33.29;40.66;99567.97;5112012;28;20202;-57
2023/10/02 11:48:35;;;;;;;0.00;0.00;;;;;;;35.13;38.10;99554.47;5111066;28;20190;-57
2023/10/02 11:51:28;;;;;;;0.00;0.00;;;;;;;36.18;36.71;99549.19;5111843;28;20276;-58
2023/10/02 11:54:17;;;;;;;0.00;0.00;;;;;;;36.05;36.57;99542.97;5112043;28;20206;-58
2023/10/02 11:57:09;;;;;;;0.00;0.00;;;;;;;34.47;38.92;99544.09;5112169;28;20194;-57
2023/10/02 11:59:56;;;;;;;0.00;0.00;;;;;;;34.22;39.40;99538.88;5111697;28;20206;-57
2023/10/02 12:02:45;;;;;;;0.00;0.00;;;;;;;34.77;38.69;99541.09;5110684;28;20202;-57
2023/10/02 12:05:36;;;;;;;0.00;0.00;;;;;;;33.41;40.49;99530.44;5112260;28;20197;-57
2023/10/02 12:08:25;;;;;;;0.00;0.00;;;;;;;34.53;38.90;99530.19;5111504;28;20312;-57
2023/10/02 12:11:13;;;;;;;0.00;0.00;;;;;;;33.95;39.26;99530.31;5111433;28;20214;-57
2023/10/02 12:14:01;;;;;;;0.00;0.00;;;;;;;34.27;39.90;99526.06;5115414;28;20232;-57
2023/10/02 12:16:48;;;;;;;0.00;0.00;;;;;;;34.34;38.65;99515.72;5115670;28;20324;-57
2023/10/02 12:19:38;;;;;;;0.00;0.00;;;;;;;35.12;38.08;99507.88;5114425;28;20193;-57
2023/10/02 12:22:26;;;;;;;0.00;0.00;;;;;;;35.54;37.49;99500.03;5115042;28;20198;-57
2023/10/02 12:25:15;;;;;;;0.00;0.00;;;;;;;37.10;35.46;99493.94;5115753;28;20198;-57
2023/10/02 12:28:03;;;;;;;0.00;0.00;;;;;;;37.65;33.09;99498.25;5115805;28;20271;-58
2023/10/02 12:30:50;;;;;;;0.00;0.00;;;;;;;37.83;34.12;99504.44;5115065;28;20217;-58
2023/10/02 12:33:38;;;;;;;0.00;0.00;;;;;;;39.19;32.05;99498.53;5114179;28;20785;-58
2023/10/02 12:36:26;;;;;;;0.00;0.00;;;;;;;37.80;33.05;99498.34;5114809;28;20316;-58
2023/10/02 12:39:13;;;;;;;0.00;0.00;;;;;;;40.00;31.04;99485.66;5115235;28;20194;-58
2023/10/02 12:42:03;;;;;;;0.00;0.00;;;;;;;40.49;30.33;99495.97;5114811;28;20301;-58
2023/10/02 12:44:50;;;;;;;0.00;0.00;;;;;;;37.71;32.70;99490.78;5114723;28;20197;-58
2023/10/02 12:47:38;;;;;;;0.00;0.00;;;;;;;36.92;34.06;99486.03;5113320;28;20210;-58
2023/10/02 12:50:25;;;;;;;0.00;0.00;;;;;;;37.45;34.68;99487.06;5114603;28;20279;-58
2023/10/02 12:53:12;;;;;;;0.00;0.00;;;;;;;39.89;31.59;99487.59;5115889;28;20194;-58
2023/10/02 12:55:59;;;;;;;0.00;0.00;;;;;;;42.47;28.68;99482.13;5115792;28;20198;-58
2023/10/02 12:58:49;;;;;;;0.00;0.00;;;;;;;42.90;27.34;99473.69;5114851;28;20285;-58
2023/10/02 13:01:36;;;;;;;0.00;0.00;;;;;;;41.88;28.55;99469.50;5115543;28;20241;-58
2023/10/02 13:04:23;;;;;;;0.00;0.00;;;;;;;41.75;28.99;99462.69;5114508;28;20722;-58
2023/10/02 13:07:10;;;;;;;0.00;0.00;;;;;;;40.48;29.54;99459.03;5115760;28;20194;-58
2023/10/02 13:09:57;;;;;;;0.00;0.00;;;;;;;39.92;30.14;99447.34;5115280;28;20222;-58
2023/10/02 13:12:44;;;;;;;0.00;0.00;;;;;;;41.86;28.43;99444.75;5115565;28;20293;-58
2023/10/02 13:15:34;;;;;;;0.00;0.00;;;;;;;41.55;28.46;99444.25;5115619;28;20197;-58
2023/10/02 13:18:20;;;;;;;0.00;0.00;;;;;;;42.09;28.25;99440.28;5114170;28;20228;-58
2023/10/02 13:21:08;;;;;;;0.00;0.00;;;;;;;39.74;30.44;99432.97;5114811;28;20236;-58
2023/10/02 13:23:55;;;;;;;0.00;0.00;;;;;;;39.70;30.68;99428.28;5115182;28;20182;-58
2023/10/02 13:26:42;;;;;;;0.00;0.00;;;;;;;40.13;30.53;99423.94;5115343;28;20186;-57
2023/10/02 13:29:29;;;;;;;0.00;0.00;;;;;;;38.68;31.76;99425.59;5115406;28;20202;-58
2023/10/02 13:32:17;;;;;;;0.00;0.00;;;;;;;40.45;29.74;99417.13;5113727;28;20304;-58
2023/10/02 13:35:06;;;;;;;0.00;0.00;;;;;;;40.33;29.96;99409.09;5115167;28;20213;-58
2023/10/02 13:37:53;;;;;;;0.00;0.00;;;;;;;39.74;30.44;99407.19;5115135;28;20202;-58
2023/10/02 13:40:41;;;;;;;0.00;0.00;;;;;;;39.65;30.93;99395.84;5114920;28;20218;-58